Impacts METAR Board
IDs:

KBOS - Boston/Logan Intl, MA, US

Updated at: 0100 UTC 28 May 2018
Potential Impact None Slight Moderate High
Time 27/13Z 27/14Z 27/15Z 27/16Z 27/17Z 27/18Z 27/19Z 27/20Z 27/21Z 27/22Z 27/23Z 28/00Z 28/01Z
Temp54 54 54 54 55 54 53 53 53 52 51 51 50
Dewpt48 48 46 46 45 45 45 45 46 47 48 48 48
Altim30.19 30.20 30.21 30.21 30.21 30.22 30.21 30.19 30.18 30.18 30.19 30.19 30.18
VIS10 10 10 10 10 10 10 10 10 10 10 10 10
CIG22 22 29 30 25 27 38 39 39 36 12 13 11
CoverOVCOVCOVCOVCOVCOVCOVCOVCOVCOVCOVCOVCOVC
FltCatMVFRMVFRMVFRMVFRMVFRMVFRVFRVFRVFRVFRMVFRMVFRMVFR
WX-------------------RA---RA-RA
WDir60706060706060506050505050
WSpd16 16 20 15 16 15 16 17 17 14 12 12 14
WGst-- -- -- -- -- -- -- -- -- 20 -- -- --
Raw hourly METARs
KBOS 271254Z 06016KT 10SM FEW012 OVC022 12/09 A3019 RMK AO2 SLP223 T01220089
KBOS 271354Z 07016KT 10SM FEW012 OVC022 12/09 A3020 RMK AO2 SLP227 T01220089
KBOS 271454Z 06020KT 10SM FEW020 OVC029 12/08 A3021 RMK AO2 SLP228 T01220078 51012
KBOS 271554Z 06015KT 10SM FEW020 OVC030 12/08 A3021 RMK AO2 SLP228 T01220078
KBOS 271654Z 07016KT 10SM BKN025 OVC037 13/07 A3021 RMK AO2 SLP229 T01280072
KBOS 271754Z 06015KT 10SM OVC027 12/07 A3022 RMK AO2 SLP231 T01220072 10128 20122 53002
KBOS 271854Z 06016KT 10SM SCT026 OVC038 12/07 A3021 RMK AO2 SLP228 T01170072
KBOS 271954Z 05017KT 10SM OVC039 12/07 A3019 RMK AO2 RAB17E30 SLP222 P0000 T01170072
KBOS 272054Z 06017KT 10SM OVC039 12/08 A3018 RMK AO2 SLP219 60000 T01170078 58012
KBOS 272154Z 05014G20KT 10SM -RA OVC036 11/08 A3018 RMK AO2 RAB02 SLP219 P0000 T01110083
KBOS 272301Z 05012KT 10SM BKN012 OVC037 11/09 A3019 RMK AO2 T01060089
KBOS 272354Z 05012KT 10SM -RA OVC013 11/09 A3019 RMK AO2 RAB18 SLP223 P0000 60000 T01060089 10122 20100 53004
KBOS 280054Z 05014KT 10SM -RA OVC011 10/09 A3018 RMK AO2 SLP220 P0001 T01000089



Page loaded:  01:34 UTC  |   06:34 PM Pacific  |   07:34 PM Mountain  |   08:34 PM Central  |   09:34 PM Eastern

 

ADVISORIES

FORECASTS

FORECASTS

OBSERVATIONS

USER TOOLS

ABOUT US